createdAt,value
2018-04-11T00:01:54.938Z,14.00
2018-04-11T00:04:23.232Z,13.90
2018-04-11T00:06:51.909Z,13.90
2018-04-11T00:09:20.385Z,13.90
2018-04-11T00:11:50.112Z,13.80
2018-04-11T00:14:19.295Z,13.80
2018-04-11T00:16:48.497Z,13.80
2018-04-11T00:19:16.348Z,13.80
2018-04-11T00:21:44.527Z,13.70
2018-04-11T00:24:12.788Z,13.70
2018-04-11T00:26:41.162Z,13.70
2018-04-11T00:29:09.047Z,13.70
2018-04-11T00:31:37.317Z,13.60
2018-04-11T00:34:06.401Z,13.60
2018-04-11T00:36:34.386Z,13.60
2018-04-11T00:39:02.552Z,13.60
2018-04-11T00:41:30.628Z,13.50
2018-04-11T00:43:58.918Z,13.30
2018-04-11T00:46:27.938Z,13.20
2018-04-11T00:48:57.099Z,13.20
2018-04-11T00:51:26.200Z,13.20
2018-04-11T00:53:55.086Z,13.10
2018-04-11T00:56:23.261Z,13.10
2018-04-11T00:58:51.531Z,13.00
2018-04-11T01:01:20.095Z,13.00
2018-04-11T01:03:48.277Z,13.10
2018-04-11T01:06:16.843Z,13.10
2018-04-11T01:08:45.056Z,13.10
2018-04-11T01:11:13.720Z,13.10
2018-04-11T01:13:42.111Z,13.10
2018-04-11T01:16:09.960Z,13.10
2018-04-11T01:18:38.214Z,12.90
2018-04-11T01:21:06.529Z,13.00
2018-04-11T01:23:35.383Z,12.90
2018-04-11T01:26:03.983Z,12.80
2018-04-11T01:28:31.857Z,12.90
2018-04-11T01:31:00.251Z,12.90
2018-04-11T01:33:29.225Z,13.00
2018-04-11T01:35:57.420Z,13.00
2018-04-11T01:38:26.717Z,12.90
2018-04-11T01:40:55.767Z,12.90
2018-04-11T01:43:23.960Z,12.90
2018-04-11T01:45:52.137Z,12.90
2018-04-11T01:48:20.653Z,12.90
2018-04-11T01:50:49.505Z,12.70
2018-04-11T01:53:17.889Z,12.70
2018-04-11T01:55:45.943Z,12.60
2018-04-11T01:58:14.232Z,12.60
2018-04-11T02:00:42.712Z,12.50
2018-04-11T02:03:10.892Z,12.40
2018-04-11T02:05:39.907Z,12.40
2018-04-11T02:08:08.877Z,12.40
2018-04-11T02:10:36.840Z,12.40
2018-04-11T02:13:04.812Z,12.40
2018-04-11T02:15:32.884Z,12.40
2018-04-11T02:18:01.163Z,12.30
2018-04-11T02:20:29.710Z,12.30
2018-04-11T02:22:58.008Z,12.30
2018-04-11T02:25:26.186Z,12.30
2018-04-11T02:27:54.054Z,12.20
2018-04-11T02:30:22.553Z,12.20
2018-04-11T02:32:51.493Z,12.20
2018-04-11T02:35:19.993Z,12.30
2018-04-11T02:37:48.160Z,12.20
2018-04-11T02:40:16.665Z,12.10
2018-04-11T02:42:44.839Z,12.10
2018-04-11T02:45:12.812Z,12.00
2018-04-11T02:47:40.883Z,12.00
2018-04-11T02:50:08.961Z,12.10
2018-04-11T02:52:37.227Z,12.10
2018-04-11T02:55:05.403Z,12.10
2018-04-11T02:57:34.392Z,12.10
2018-04-11T03:00:02.465Z,12.10
2018-04-11T03:02:30.433Z,12.00
2018-04-11T03:04:58.407Z,12.00
2018-04-11T03:07:26.375Z,12.00
2018-04-11T03:09:55.658Z,11.90
2018-04-11T03:12:23.838Z,11.90
2018-04-11T03:14:52.019Z,11.80
2018-04-11T03:17:21.852Z,11.80
2018-04-11T03:19:50.929Z,11.80
2018-04-11T03:22:19.093Z,11.80
2018-04-11T03:24:47.472Z,11.80
2018-04-11T03:27:15.651Z,11.80
2018-04-11T03:29:44.022Z,11.80
2018-04-11T03:32:12.167Z,11.70
2018-04-11T03:34:40.366Z,11.80
2018-04-11T03:37:08.237Z,11.80
2018-04-11T03:39:37.536Z,11.80
2018-04-11T03:42:05.646Z,11.80
2018-04-11T03:44:33.579Z,11.70
2018-04-11T03:47:01.891Z,11.80
2018-04-11T03:49:30.023Z,11.60
2018-04-11T03:51:58.607Z,11.50
2018-04-11T03:54:26.885Z,11.60
2018-04-11T03:56:55.059Z,11.70
2018-04-11T03:59:23.945Z,11.60
2018-04-11T04:01:52.102Z,11.60
2018-04-11T04:04:20.191Z,11.50
2018-04-11T04:06:48.502Z,11.50
2018-04-11T04:09:17.356Z,11.50
2018-04-11T04:11:45.536Z,11.50
2018-04-11T04:14:26.200Z,11.40
2018-04-11T04:17:06.050Z,11.40
2018-04-11T04:22:39.047Z,11.30
2018-04-11T04:25:07.022Z,11.30
2018-04-11T04:27:35.296Z,11.30
2018-04-11T04:30:03.263Z,11.40
2018-04-11T04:32:32.226Z,11.40
2018-04-11T04:35:00.491Z,11.50
2018-04-11T04:37:28.800Z,11.60
2018-04-11T04:39:57.161Z,11.50
2018-04-11T04:42:25.575Z,11.60
2018-04-11T04:44:54.549Z,11.70
2018-04-11T04:47:23.575Z,11.70
2018-04-11T04:49:51.894Z,11.80
2018-04-11T04:52:19.988Z,11.80
2018-04-11T04:54:48.061Z,11.70
2018-04-11T04:57:16.134Z,11.80
2018-04-11T04:59:44.104Z,11.80
2018-04-11T05:02:13.403Z,11.90
2018-04-11T05:04:41.782Z,11.90
2018-04-11T05:07:09.931Z,12.00
2018-04-11T05:09:38.044Z,12.00
2018-04-11T05:12:07.288Z,12.10
2018-04-11T05:14:35.392Z,12.10
2018-04-11T05:17:03.718Z,12.20
2018-04-11T05:19:32.382Z,12.30
2018-04-11T05:22:01.651Z,12.40
2018-04-11T05:24:30.072Z,12.40
2018-04-11T05:26:59.360Z,12.60
2018-04-11T05:29:28.859Z,12.80
2018-04-11T05:31:59.088Z,12.90
2018-04-11T05:34:28.372Z,12.90
2018-04-11T05:36:57.548Z,12.90
2018-04-11T05:39:25.723Z,13.10
2018-04-11T05:41:54.817Z,13.30
2018-04-11T05:44:24.537Z,13.90
2018-04-11T05:46:55.978Z,14.30
2018-04-11T05:49:24.378Z,14.30
2018-04-11T05:51:54.877Z,15.00
2018-04-11T05:54:23.578Z,15.00
2018-04-11T05:56:52.102Z,15.30
2018-04-11T05:59:20.737Z,15.60
2018-04-11T06:01:49.197Z,15.90
2018-04-11T06:04:17.639Z,16.20
2018-04-11T06:06:46.734Z,16.90
2018-04-11T06:09:15.365Z,16.80
2018-04-11T06:11:43.824Z,17.10
2018-04-11T06:14:13.222Z,17.40
2018-04-11T06:16:41.773Z,17.50
2018-04-11T06:19:11.254Z,16.80
2018-04-11T06:21:39.847Z,16.80
2018-04-11T06:24:08.695Z,16.50
2018-04-11T06:26:37.301Z,16.20
2018-04-11T06:29:25.235Z,16.10
2018-04-11T06:32:00.742Z,16.00
2018-04-11T06:34:29.641Z,16.00
2018-04-11T06:37:02.962Z,16.40
2018-04-11T06:39:33.742Z,17.40
2018-04-11T06:42:03.670Z,17.40
2018-04-11T06:44:35.562Z,17.60
2018-04-11T06:52:45.999Z,19.50
2018-04-11T06:55:16.747Z,20.50
2018-04-11T06:57:47.327Z,20.50
2018-04-11T07:00:15.840Z,20.60
2018-04-11T07:02:45.691Z,20.50
2018-04-11T07:05:14.960Z,20.50
2018-04-11T07:07:43.619Z,20.70
2018-04-11T07:10:12.896Z,21.40
2018-04-11T07:12:41.296Z,21.50
2018-04-11T07:15:09.683Z,21.40
2018-04-11T07:17:39.804Z,22.30
2018-04-11T07:20:07.978Z,22.30
2018-04-11T07:22:37.148Z,23.90
2018-04-11T07:25:05.320Z,23.80
2018-04-11T07:27:33.714Z,24.40
2018-04-11T07:30:02.032Z,25.10
2018-04-11T07:32:31.516Z,25.70
2018-04-11T07:35:00.625Z,25.90
2018-04-11T07:37:29.506Z,26.00
2018-04-11T07:39:58.162Z,26.00
2018-04-11T07:42:26.377Z,26.00
2018-04-11T07:44:55.533Z,25.00
2018-04-11T07:47:23.825Z,24.90
2018-04-11T07:49:52.135Z,24.50
2018-04-11T07:52:20.776Z,25.10
2018-04-11T07:54:49.181Z,26.20
2018-04-11T07:57:18.458Z,27.20
2018-04-11T07:59:46.620Z,27.20
2018-04-11T08:02:15.202Z,26.90
2018-04-11T08:04:43.913Z,26.70
2018-04-11T08:07:13.355Z,27.30
2018-04-11T08:09:42.005Z,27.30
2018-04-11T08:12:10.969Z,28.50
2018-04-11T08:14:39.180Z,28.50
2018-04-11T08:17:08.272Z,28.80
2018-04-11T08:19:37.834Z,29.20
2018-04-11T08:22:06.015Z,29.20
2018-04-11T08:24:34.223Z,29.70
2018-04-11T08:27:03.323Z,29.90
2018-04-11T08:29:32.427Z,29.70
2018-04-11T08:32:00.558Z,29.70
2018-04-11T08:34:30.459Z,29.50
2018-04-11T08:36:58.781Z,30.30
2018-04-11T08:39:28.447Z,30.90
2018-04-11T08:41:57.652Z,30.90
2018-04-11T08:44:26.142Z,30.20
2018-04-11T08:46:55.150Z,30.50
2018-04-11T08:49:25.237Z,29.40
2018-04-11T08:51:53.481Z,29.40
2018-04-11T08:54:21.912Z,28.30
2018-04-11T08:56:51.366Z,27.60
2018-04-11T08:59:19.753Z,28.00
2018-04-11T09:01:47.877Z,28.80
2018-04-11T09:04:16.983Z,29.60
2018-04-11T09:06:45.936Z,30.80
2018-04-11T09:09:14.214Z,30.80
2018-04-11T09:11:43.625Z,31.10
2018-04-11T09:14:12.172Z,31.00
2018-04-11T09:16:40.705Z,30.90
2018-04-11T09:19:10.207Z,30.90
2018-04-11T09:21:39.318Z,30.10
2018-04-11T09:24:08.793Z,30.10
2018-04-11T09:26:37.255Z,30.10
2018-04-11T09:29:05.724Z,30.10
2018-04-11T09:31:33.836Z,29.60
2018-04-11T09:34:01.790Z,29.50
2018-04-11T09:36:29.654Z,29.10
2018-04-11T09:38:57.741Z,28.40
2018-04-11T09:41:25.983Z,28.30
2018-04-11T09:43:54.419Z,27.40
2018-04-11T09:46:23.391Z,25.30
2018-04-11T09:48:52.540Z,24.90
2018-04-11T09:51:20.735Z,24.80
2018-04-11T09:53:49.858Z,24.90
2018-04-11T09:56:19.117Z,26.10
2018-04-11T09:58:47.001Z,26.10
2018-04-11T10:01:18.930Z,27.20
2018-04-11T10:03:46.963Z,27.40
2018-04-11T10:06:16.727Z,28.90
2018-04-11T10:08:46.260Z,28.90
2018-04-11T10:11:14.434Z,29.10
2018-04-11T10:13:42.736Z,28.90
2018-04-11T10:16:11.820Z,28.10
2018-04-11T10:18:40.884Z,27.80
2018-04-11T10:21:09.060Z,27.80
2018-04-11T10:23:37.460Z,27.40
2018-04-11T10:26:06.506Z,26.40
2018-04-11T10:28:35.082Z,26.40
2018-04-11T10:31:03.612Z,26.60
2018-04-11T10:33:32.040Z,26.10
2018-04-11T10:35:59.940Z,26.80
2018-04-11T10:38:27.941Z,27.30
2018-04-11T10:40:58.531Z,28.90
2018-04-11T10:43:27.125Z,28.90
2018-04-11T10:45:55.523Z,29.30
2018-04-11T10:48:25.239Z,28.70
2018-04-11T10:50:54.940Z,28.60
2018-04-11T10:53:22.961Z,28.50
2018-04-11T10:55:51.394Z,28.80
2018-04-11T10:58:19.930Z,29.00
2018-04-11T11:00:48.365Z,29.80
2018-04-11T11:03:17.332Z,31.10
2018-04-11T11:05:45.356Z,31.10
2018-04-11T11:08:13.614Z,31.60
2018-04-11T11:10:43.088Z,32.50
2018-04-11T11:13:12.167Z,31.30
2018-04-11T11:15:40.428Z,31.30
2018-04-11T11:18:09.018Z,30.20
2018-04-11T11:20:37.753Z,29.80
2018-04-11T11:23:07.436Z,31.00
2018-04-11T11:25:36.833Z,31.90
2018-04-11T11:28:05.085Z,31.90
2018-04-11T11:30:33.100Z,32.30
2018-04-11T11:33:02.176Z,34.10
2018-04-11T11:35:30.481Z,34.10
2018-04-11T11:37:59.603Z,36.00
2018-04-11T11:40:28.250Z,35.90
2018-04-11T11:42:57.590Z,36.10
2018-04-11T11:45:25.802Z,36.00
2018-04-11T11:47:54.255Z,36.20
2018-04-11T11:50:22.737Z,35.90
2018-04-11T11:52:51.041Z,35.10
2018-04-11T11:55:19.396Z,33.10
2018-04-11T11:57:47.593Z,31.50
2018-04-11T12:00:15.774Z,31.10
2018-04-11T12:02:43.927Z,32.10
2018-04-11T12:05:12.111Z,32.60
2018-04-11T12:07:40.496Z,32.90
2018-04-11T12:10:08.676Z,33.40
2018-04-11T12:12:37.697Z,32.50
2018-04-11T12:15:06.200Z,31.90
2018-04-11T12:17:34.405Z,32.00
2018-04-11T12:20:02.678Z,31.90
2018-04-11T12:22:30.960Z,31.00
2018-04-11T12:24:59.222Z,29.60
2018-04-11T12:27:27.724Z,28.30
2018-04-11T12:29:55.997Z,27.70
2018-04-11T12:32:24.946Z,27.40
2018-04-11T12:34:53.111Z,27.20
2018-04-11T12:37:21.563Z,27.30
2018-04-11T12:39:51.026Z,27.10
2018-04-11T12:42:19.317Z,27.00
2018-04-11T12:44:47.814Z,27.20
2018-04-11T12:47:17.233Z,29.00
2018-04-11T12:49:46.475Z,28.90
2018-04-11T12:52:15.188Z,28.90
2018-04-11T12:54:43.678Z,28.40
2018-04-11T12:57:12.436Z,28.30
2018-04-11T12:59:41.295Z,27.90
2018-04-11T13:02:09.794Z,27.50
2018-04-11T13:04:39.210Z,27.40
2018-04-11T13:07:07.514Z,27.00
2018-04-11T13:09:36.119Z,26.60
2018-04-11T13:12:05.487Z,25.60
2018-04-11T13:14:33.670Z,25.60
2018-04-11T13:17:02.212Z,25.80
2018-04-11T13:19:31.021Z,25.70
2018-04-11T13:21:59.313Z,25.60
2018-04-11T13:24:27.284Z,25.60
2018-04-11T13:26:55.682Z,25.40
2018-04-11T13:29:25.459Z,25.20
2018-04-11T13:31:54.053Z,25.20
2018-04-11T13:34:22.352Z,24.70
2018-04-11T13:36:51.429Z,24.70
2018-04-11T13:39:19.804Z,24.70
2018-04-11T13:41:48.383Z,24.90
2018-04-11T13:44:17.079Z,25.00
2018-04-11T13:46:45.214Z,24.60
2018-04-11T13:49:13.340Z,24.30
2018-04-11T13:51:42.529Z,24.20
2018-04-11T13:54:10.797Z,24.20
2018-04-11T13:56:38.872Z,24.30
2018-04-11T13:59:06.842Z,25.80
2018-04-11T14:01:35.743Z,28.30
2018-04-11T14:04:05.595Z,28.50
2018-04-11T14:06:33.921Z,28.50
2018-04-11T14:09:02.676Z,28.30
2018-04-11T14:11:31.083Z,28.80
2018-04-11T14:13:59.231Z,28.10
2018-04-11T14:16:27.421Z,28.30
2018-04-11T14:18:55.800Z,28.60
2018-04-11T14:21:24.200Z,28.60
2018-04-11T14:23:53.813Z,28.70
2018-04-11T14:26:23.296Z,28.30
2018-04-11T14:28:51.763Z,28.20
2018-04-11T14:31:20.247Z,28.10
2018-04-11T14:33:48.399Z,28.60
2018-04-11T14:36:16.920Z,29.00
2018-04-11T14:38:46.856Z,29.20
2018-04-11T14:41:16.256Z,29.10
2018-04-11T14:43:45.455Z,29.10
2018-04-11T14:46:15.742Z,28.70
2018-04-11T14:48:44.643Z,28.70
2018-04-11T14:51:13.639Z,28.10
2018-04-11T14:53:42.826Z,26.00
2018-04-11T14:56:10.897Z,25.90
2018-04-11T14:58:39.035Z,25.70
2018-04-11T15:01:07.972Z,26.40
2018-04-11T15:03:36.058Z,27.20
2018-04-11T15:06:05.672Z,28.80
2018-04-11T15:08:34.837Z,29.30
2018-04-11T15:11:03.122Z,29.30
2018-04-11T15:13:31.328Z,28.90
2018-04-11T15:15:59.815Z,28.80
2018-04-11T15:18:28.415Z,28.30
2018-04-11T15:20:57.421Z,27.70
2018-04-11T15:23:25.718Z,27.00
2018-04-11T15:25:54.223Z,26.10
2018-04-11T15:28:23.164Z,25.70
2018-04-11T15:30:51.340Z,25.70
2018-04-11T15:33:19.328Z,26.20
2018-04-11T15:35:47.578Z,26.70
2018-04-11T15:38:16.113Z,27.40
2018-04-11T15:40:45.220Z,28.80
2018-04-11T15:43:14.396Z,29.20
2018-04-11T15:45:43.596Z,29.10
2018-04-11T15:48:11.853Z,29.10
2018-04-11T15:50:40.239Z,28.40
2018-04-11T15:53:08.417Z,27.10
2018-04-11T15:55:38.730Z,25.30
2018-04-11T15:58:06.597Z,25.20
2018-04-11T16:00:34.671Z,24.60
2018-04-11T16:03:03.041Z,24.40
2018-04-11T16:05:31.196Z,24.30
2018-04-11T16:07:59.290Z,24.10
2018-04-11T16:10:27.154Z,24.20
2018-04-11T16:12:55.228Z,24.20
2018-04-11T16:15:24.459Z,24.20
2018-04-11T16:17:52.708Z,24.20
2018-04-11T16:20:20.977Z,23.90
2018-04-11T16:22:49.183Z,23.90
2018-04-11T16:25:17.842Z,23.60
2018-04-11T16:27:45.808Z,23.50
2018-04-11T16:30:14.057Z,23.50
2018-04-11T16:32:42.158Z,23.40
2018-04-11T16:35:10.330Z,23.20
2018-04-11T16:37:38.692Z,23.20
2018-04-11T16:40:06.797Z,23.00
2018-04-11T16:42:35.667Z,23.00
2018-04-11T16:45:03.746Z,23.00
2018-04-11T16:47:31.710Z,22.90
2018-04-11T16:49:59.780Z,23.00
2018-04-11T16:52:27.952Z,23.00
2018-04-11T16:54:55.920Z,22.80
2018-04-11T16:57:24.006Z,22.80
2018-04-11T16:59:52.732Z,22.70
2018-04-11T17:02:22.159Z,22.60
2018-04-11T17:04:50.401Z,22.60
2018-04-11T17:07:18.632Z,22.60
2018-04-11T17:09:46.600Z,22.40
2018-04-11T17:12:14.500Z,22.30
2018-04-11T17:14:43.527Z,22.30
2018-04-11T17:17:11.522Z,22.30
2018-04-11T17:19:39.709Z,22.20
2018-04-11T17:22:19.963Z,22.10
2018-04-11T17:24:59.912Z,22.00
2018-04-11T17:30:44.174Z,21.70
2018-04-11T17:33:12.247Z,21.50
2018-04-11T17:35:40.727Z,21.40
2018-04-11T17:38:08.598Z,21.30
2018-04-11T17:40:36.770Z,21.30
2018-04-11T17:43:04.949Z,21.30
2018-04-11T17:45:33.180Z,21.20
2018-04-11T17:48:01.187Z,21.20
2018-04-11T17:50:29.457Z,21.10
2018-04-11T17:52:57.599Z,21.00
2018-04-11T17:55:25.605Z,21.00
2018-04-11T17:57:53.927Z,20.90
2018-04-11T18:00:22.144Z,20.80
2018-04-11T18:02:50.327Z,20.80
2018-04-11T18:05:18.297Z,20.60
2018-04-11T18:07:46.162Z,20.50
2018-04-11T18:10:14.245Z,20.40
2018-04-11T18:12:42.203Z,20.30
2018-04-11T18:15:10.257Z,20.20
2018-04-11T18:17:38.142Z,20.10
2018-04-11T18:20:06.217Z,20.00
2018-04-11T18:22:34.456Z,19.80
2018-04-11T18:25:02.353Z,19.80
2018-04-11T18:27:30.529Z,19.70
2018-04-11T18:29:59.566Z,19.60
2018-04-11T18:32:27.488Z,19.50
2018-04-11T18:34:55.564Z,19.60
2018-04-11T18:37:24.964Z,19.30
2018-04-11T18:39:53.137Z,19.30
2018-04-11T18:42:24.001Z,19.30
2018-04-11T18:44:52.150Z,19.30
2018-04-11T18:47:20.268Z,19.30
2018-04-11T18:49:49.108Z,19.30
2018-04-11T18:52:17.181Z,19.20
2018-04-11T18:54:45.670Z,19.10
2018-04-11T18:57:13.938Z,19.10
2018-04-11T18:59:42.077Z,19.10
2018-04-11T19:02:10.691Z,18.90
2018-04-11T19:04:38.991Z,18.70
2018-04-11T19:07:07.862Z,18.60
2018-04-11T19:09:35.920Z,18.60
2018-04-11T19:12:04.308Z,18.60
2018-04-11T19:14:32.482Z,18.50
2018-04-11T19:17:00.548Z,18.40
2018-04-11T19:19:28.944Z,18.30
2018-04-11T19:21:58.022Z,18.10
2018-04-11T19:24:25.989Z,18.10
2018-04-11T19:26:54.023Z,18.00
2018-04-11T19:29:22.349Z,18.10
2018-04-11T19:31:50.713Z,18.10
2018-04-11T19:34:20.535Z,17.90
2018-04-11T19:36:48.908Z,17.90
2018-04-11T19:39:17.375Z,17.90
2018-04-11T19:41:45.352Z,17.80
2018-04-11T19:44:13.432Z,17.80
2018-04-11T19:46:42.487Z,17.70
2018-04-11T19:49:10.702Z,17.70
2018-04-11T19:51:38.671Z,17.60
2018-04-11T19:54:06.847Z,17.60
2018-04-11T19:56:35.002Z,17.60
2018-04-11T19:59:03.394Z,17.60
2018-04-11T20:01:31.673Z,17.60
2018-04-11T20:03:59.725Z,17.60
2018-04-11T20:06:27.910Z,17.60
2018-04-11T20:08:57.303Z,17.50
2018-04-11T20:11:25.278Z,17.40
2018-04-11T20:13:53.519Z,17.40
2018-04-11T20:16:21.627Z,17.40
2018-04-11T20:18:49.902Z,17.20
2018-04-11T20:21:18.053Z,17.20
2018-04-11T20:23:46.291Z,17.10
2018-04-11T20:26:14.502Z,16.90
2018-04-11T20:28:42.593Z,16.80
2018-04-11T20:31:10.774Z,16.60
2018-04-11T20:33:39.062Z,16.50
2018-04-11T20:36:08.549Z,16.40
2018-04-11T20:38:36.727Z,16.40
2018-04-11T20:41:04.793Z,16.40
2018-04-11T20:43:32.733Z,16.30
2018-04-11T20:46:01.142Z,16.30
2018-04-11T20:48:29.537Z,16.30
2018-04-11T20:50:58.207Z,16.30
2018-04-11T20:53:26.276Z,16.20
2018-04-11T20:55:54.466Z,16.30
2018-04-11T20:58:23.423Z,16.20
2018-04-11T21:00:51.702Z,16.20
2018-04-11T21:03:20.608Z,16.10
2018-04-11T21:05:48.678Z,16.00
2018-04-11T21:08:16.964Z,16.00
2018-04-11T21:10:45.112Z,16.00
2018-04-11T21:13:13.306Z,15.90
2018-04-11T21:15:41.753Z,15.90
2018-04-11T21:18:09.724Z,15.80
2018-04-11T21:20:37.717Z,15.80
2018-04-11T21:23:06.008Z,15.80
2018-04-11T21:25:34.133Z,15.80
2018-04-11T21:28:02.456Z,15.80
2018-04-11T21:30:30.694Z,15.80
2018-04-11T21:32:58.699Z,15.80
2018-04-11T21:35:26.653Z,15.70
2018-04-11T21:37:54.839Z,15.60
2018-04-11T21:40:23.298Z,15.60
2018-04-11T21:42:52.188Z,15.40
2018-04-11T21:45:20.343Z,15.40
2018-04-11T21:47:48.763Z,15.40
2018-04-11T21:50:16.876Z,15.30
2018-04-11T21:52:45.219Z,15.30
2018-04-11T21:55:14.204Z,15.00
2018-04-11T21:57:42.476Z,15.00
2018-04-11T22:00:11.563Z,15.00
2018-04-11T22:02:39.633Z,14.90
2018-04-11T22:05:07.609Z,14.90
2018-04-11T22:07:35.873Z,14.90
2018-04-11T22:10:03.953Z,14.80
2018-04-11T22:12:32.843Z,14.80
2018-04-11T22:15:00.702Z,14.80
2018-04-11T22:17:29.083Z,14.80
2018-04-11T22:19:57.125Z,14.80
2018-04-11T22:22:25.633Z,14.90
2018-04-11T22:24:53.617Z,14.90
2018-04-11T22:27:22.806Z,14.90
2018-04-11T22:29:50.850Z,14.90
2018-04-11T22:32:19.033Z,14.90
2018-04-11T22:34:46.913Z,14.90
2018-04-11T22:37:14.993Z,14.90
2018-04-11T22:39:43.053Z,14.80
2018-04-11T22:42:11.638Z,14.80
2018-04-11T22:44:40.635Z,14.70
2018-04-11T22:47:08.879Z,14.70
2018-04-11T22:49:37.792Z,14.70
2018-04-11T22:52:05.868Z,14.80
2018-04-11T22:54:34.054Z,14.80
2018-04-11T22:57:02.313Z,14.70
2018-04-11T22:59:30.588Z,14.60
2018-04-11T23:01:58.969Z,14.60
2018-04-11T23:04:26.838Z,14.50
2018-04-11T23:06:56.451Z,14.40
2018-04-11T23:09:24.514Z,14.40
2018-04-11T23:11:52.583Z,14.40
2018-04-11T23:14:20.862Z,14.40
2018-04-11T23:16:48.829Z,14.40
2018-04-11T23:19:17.108Z,14.40
2018-04-11T23:21:45.368Z,14.30
2018-04-11T23:24:13.449Z,14.30
2018-04-11T23:26:41.418Z,14.20
2018-04-11T23:29:09.602Z,14.20
2018-04-11T23:31:37.769Z,14.10
2018-04-11T23:34:05.738Z,14.20
2018-04-11T23:36:33.703Z,14.10
2018-04-11T23:39:01.778Z,14.00
2018-04-11T23:41:30.093Z,14.00
2018-04-11T23:43:58.222Z,14.00
2018-04-11T23:46:26.372Z,14.10
2018-04-11T23:48:54.469Z,14.00
2018-04-11T23:51:22.642Z,14.00
2018-04-11T23:53:50.723Z,14.00
2018-04-11T23:56:18.672Z,13.90
2018-04-11T23:58:46.746Z,13.90
